Terminal Aerodrome Forecast
Issued by NWS

Home | Current Version | Previous Version | Text Only | Print | Product List | Glossary On
Versions: 1 2 3 4 5 6 7 8 9 10 11 12
000
FTUS45 KABQ 271700
TAFFMN
TAF
KFMN 271726Z 2718/2818 11007KT P6SM BKN070
     FM272200 28006KT P6SM SCT080
     FM280300 07006KT P6SM SKC=

USA.gov is the U.S. government's official web portal to all federal, state and local government web resources and services.